ADDS METAR Data INFO
IDs: Format: Raw Decoded Include TAF

Data at: 1137 UTC 17 Jul 2018

KFHU 171058Z AUTO 00000KT 10SM CLR 19/18 A3018 RMK AO2 SLPNO T01940176
KFHU 170958Z AUTO 00000KT 10SM FEW055 SCT280 19/18 A3019 RMK AO2 SLPNO T01890179
KFHU 170928Z AUTO 00000KT 10SM BKN055 19/18 A3020 RMK AO2 SLPNO
KFHU 170858Z AUTO 00000KT 10SM FEW055 20/18 A3018 RMK AO2 SLPNO T02000178 55005
KFHU 170758Z 00000KT 10SM CLR 20/18 A3018 RMK AO2A SLP147 T01970176
KFHU 170658Z 00000KT 10SM BKN190 20/17 A3017 RMK AO2A SLP144 T01990171 402980196
KFHU 170624Z AUTO 00000KT 10SM CLR 20/18 A3018 RMK AO2 SLP147
KFHU 170558Z AUTO 00000KT 9SM CLR 21/18 A3020 RMK AO2 SLP154 T02060177 10227 20202 50015
KFHU 170458Z AUTO 00000KT 10SM CLR 21/19 A3021 RMK AO2 SLP160 T02060187
KFHU 170426Z AUTO 00000KT 10SM FEW150 21/19 A3020 RMK AO2 LTG DSNT NE AND S SLP156
KFHU 170358Z AUTO 29003KT 10SM OVC150 21/19 A3018 RMK AO2 SLP149 T02070189
KFHU 170312Z AUTO 00000KT 10SM CLR 21/18 A3017 RMK AO2 PRESRR SLP146
KFHU 170258Z AUTO 00000KT 10SM FEW140 21/19 A3015 RMK AO2 SLP139 T02110187 50000
KFHU 170158Z AUTO 27006KT 9SM FEW140 22/18 A3015 RMK AO2 SLP141 T02150176
KFHU 170058Z AUTO 26009KT 9SM OVC130 21/18 A3016 RMK AO2 LTG DSNT NW SLP147 T02140178
KFHU 170026Z AUTO 29014KT 9SM SCT055 OVC120 22/18 A3016 RMK AO2 WSHFT 19 LTG DSNT W SLP145
KFHU 170020Z AUTO 31013KT 9SM FEW055 OVC120 23/19 A3017 RMK AO2 LTG DSNT W SLP148
KFHU 162358Z 29005KT 10SM FEW080 BKN120 BKN160 22/19 A3015 RMK AO2A LTG DSNT W-NW TSE14 SLP141 60014 T02220186 10298 20204 52003
KFHU 161958Z 30004KT 10SM SCT048 BKN090 BKN250 28/15 A3017 RMK AO2A LTG DSNT SE-S SLP141 T02810154
KFHU 161938Z 32007KT 10SM BKN047 BKN090 BKN250 27/15 A3017 RMK AO2A LTG DSNT S SLP141
KFHU 161858Z 00000KT 10SM BKN047 BKN070 27/15 A3019 RMK AO2A SLP148 SH E-S T02670154
KFHU 161840Z 36008KT 10SM BKN045 BKN085 BKN160 27/15 A3019 RMK AO2A SLP148
KFHU 161758Z 28006KT 10SM VCSH FEW065 BKN085 27/15 A3021 RMK AO2A SLP157 SH SE AND NW T02650154 10268 20201 58002
KFHU 161658Z AUTO 29007KT 10SM OVC055 25/16 A3021 RMK AO2 SLP157 T02460155
KFHU 161558Z AUTO 30009KT 10SM BKN046 OVC055 25/15 A3022 RMK AO2 SLP161 T02520154
KFHU 161458Z 30003KT 10SM VCSH SCT047 BKN060 OVC130 24/16 A3021 RMK AO2A SLP157 SH SW-W-N T02400159 52013
KFHU 161358Z AUTO 00000KT 10SM FEW047 OVC065 22/16 A3020 RMK AO2 SLP154 T02240155
KFHU 161258Z AUTO 28003KT 9SM FEW055 OVC065 21/16 A3019 RMK AO2 SLP150 T02100161
KFHU 161252Z AUTO 27003KT 9SM OVC065 21/16 A3019 RMK AO2 SLP150
KFHU 161158Z AUTO 22003KT 10SM BKN120 21/16 A3017 RMK AO2 SLP144 70004 T02060162 10222 20199 55004
KFHU 161058Z AUTO 00000KT 10SM OVC055 21/16 A3017 RMK AO2 SLP144 T02060162
KFHU 160958Z AUTO 00000KT 10SM BKN140 21/16 A3017 RMK AO2 SLP148 T02050162
KFHU 160858Z AUTO 11004KT 10SM FEW070 OVC120 21/16 A3018 RMK AO2 SLP152 T02060164 58002
KFHU 160758Z AUTO 28004KT 10SM FEW065 BKN140 21/15 A3017 RMK AO2 SLP151 T02110153
KFHU 160745Z AUTO 29004KT 10SM SCT065 BKN140 22/15 A3017 RMK AO2 SLP151
KFHU 160658Z AUTO 25007KT 10SM FEW130 22/15 A3019 RMK AO2 SLP158 T02170150 402760196
KFHU 160558Z AUTO 26005KT 10SM SCT070 BKN100 22/16 A3019 RMK AO2 SLP158 T02160162 10276 20216 50002
KFHU 160458Z AUTO 00000KT 10SM BKN100 OVC160 23/16 A3020 RMK AO2 SLP159 T02280155
KFHU 160358Z AUTO 28004KT 10SM BKN095 BKN140 OVC160 22/16 A3020 RMK AO2 LTG DSNT W SLP159 T02220156
KFHU 160349Z AUTO 27004KT 10SM BKN095 BKN140 OVC160 22/15 A3020 RMK AO2 LTG DSNT W SLP161
KFHU 160258Z AUTO 29004KT 10SM BKN130 BKN230 23/15 A3018 RMK AO2 SLP152 T02340147 53013
KFHU 160236Z AUTO 28005KT 10SM BKN130 BKN170 24/14 A3017 RMK AO2 LTG DSNT NE SLP146
KFHU 160158Z AUTO 27007KT 10SM OVC130 26/14 A3015 RMK AO2 SLP132 T02570143
KFHU 160058Z AUTO 28009KT 10SM BKN120 OVC140 26/14 A3014 RMK AO2 SLP133 T02640140
KFHU 152358Z AUTO 34008KT 10SM FEW048 27/15 A3014 RMK AO2 SLP131 60003 T02690150 10271 20196 57024
KFHU 152338Z AUTO 28010KT 10SM FEW160 27/15 A3014 RMK AO2 SLP133